createdAt,value
2019-03-21T00:00:35.330Z,50.55
2019-03-21T00:05:39.190Z,50.58
2019-03-21T00:11:43.644Z,52.65
2019-03-21T00:16:47.673Z,50.83
2019-03-21T00:21:51.536Z,72.90
2019-03-21T00:26:55.483Z,54.90
2019-03-21T00:31:59.311Z,59.38
2019-03-21T00:37:03.446Z,65.33
2019-03-21T00:42:07.410Z,50.24
2019-03-21T00:47:11.852Z,48.27
2019-03-21T00:52:16.291Z,50.23
2019-03-21T00:57:20.319Z,46.08
2019-03-21T01:02:24.178Z,47.17
2019-03-21T01:07:28.167Z,50.70
2019-03-21T01:12:32.104Z,51.40
2019-03-21T01:17:36.017Z,50.63
2019-03-21T01:22:39.925Z,44.60
2019-03-21T01:27:44.090Z,55.05
2019-03-21T01:32:48.013Z,50.83
2019-03-21T01:37:51.948Z,48.43
2019-03-21T01:42:55.834Z,41.02
2019-03-21T01:47:59.905Z,47.23
2019-03-21T01:53:03.827Z,53.40
2019-03-21T01:58:08.130Z,46.95
2019-03-21T02:03:11.861Z,49.83
2019-03-21T02:08:15.898Z,35.90
2019-03-21T02:13:20.253Z,45.43
2019-03-21T02:18:24.482Z,45.08
2019-03-21T02:23:29.268Z,48.00
2019-03-21T02:28:32.992Z,47.58
2019-03-21T02:33:37.104Z,49.25
2019-03-21T02:38:41.201Z,51.20
2019-03-21T02:43:44.918Z,51.90
2019-03-21T02:48:48.762Z,50.08
2019-03-21T02:53:52.694Z,51.42
2019-03-21T02:58:57.082Z,49.73
2019-03-21T03:04:00.956Z,48.00
2019-03-21T03:09:08.112Z,48.28
2019-03-21T03:14:11.988Z,53.73
2019-03-21T03:19:15.799Z,51.20
2019-03-21T03:24:22.239Z,45.63
2019-03-21T03:29:26.363Z,45.67
2019-03-21T03:34:30.372Z,47.05
2019-03-21T03:39:36.832Z,46.95
2019-03-21T03:44:40.164Z,46.90
2019-03-21T03:49:44.271Z,46.97
2019-03-21T03:54:48.205Z,46.95
2019-03-21T03:59:52.474Z,45.00
2019-03-21T04:04:56.371Z,44.13
2019-03-21T04:10:00.561Z,45.63
2019-03-21T04:15:05.853Z,47.33
2019-03-21T04:20:12.461Z,47.70
2019-03-21T04:25:24.118Z,46.58
2019-03-21T04:30:27.939Z,46.37
2019-03-21T04:35:31.894Z,46.25
2019-03-21T04:40:35.882Z,41.50
2019-03-21T04:45:39.778Z,41.33
2019-03-21T04:50:43.813Z,35.00
2019-03-21T04:55:47.754Z,35.33
2019-03-21T05:00:51.524Z,41.20
2019-03-21T05:05:55.382Z,43.33
2019-03-21T05:10:59.327Z,43.85
2019-03-21T05:16:14.030Z,41.60
2019-03-21T05:21:10.026Z,42.75
2019-03-21T05:26:14.220Z,38.33
2019-03-21T05:31:26.243Z,37.00
2019-03-21T05:36:30.337Z,38.10
2019-03-21T05:41:34.234Z,39.83
2019-03-21T05:46:38.107Z,35.33
2019-03-21T05:51:42.201Z,34.80
2019-03-21T05:56:46.121Z,35.65
2019-03-21T06:01:50.323Z,33.30
2019-03-21T06:07:16.284Z,34.05
2019-03-21T06:12:20.245Z,32.77
2019-03-21T06:17:24.950Z,31.70
2019-03-21T06:23:13.124Z,32.80
2019-03-21T06:28:16.889Z,30.40
2019-03-21T06:33:20.860Z,28.10
2019-03-21T06:38:24.715Z,30.72
2019-03-21T06:43:28.858Z,27.52
2019-03-21T06:48:32.834Z,30.15
2019-03-21T06:53:36.703Z,30.68
2019-03-21T06:58:40.465Z,26.80
2019-03-21T07:03:44.390Z,26.77
2019-03-21T07:08:48.389Z,24.90
2019-03-21T07:13:52.355Z,25.88
2019-03-21T07:18:56.126Z,22.47
2019-03-21T07:24:00.071Z,26.60
2019-03-21T07:29:04.098Z,21.40
2019-03-21T07:34:10.101Z,24.57
2019-03-21T07:39:13.557Z,24.87
2019-03-21T07:44:17.274Z,21.65
2019-03-21T07:49:21.066Z,23.42
2019-03-21T07:54:24.973Z,22.35
2019-03-21T07:59:28.758Z,21.57
2019-03-21T08:04:32.817Z,23.87
2019-03-21T08:09:36.821Z,23.38
2019-03-21T08:14:41.381Z,20.10
2019-03-21T08:19:45.447Z,21.42
2019-03-21T08:24:49.459Z,20.48
2019-03-21T08:29:53.647Z,18.90
2019-03-21T08:34:57.522Z,14.58
2019-03-21T08:40:01.438Z,15.58
2019-03-21T08:45:06.716Z,17.30
2019-03-21T08:50:10.990Z,18.73
2019-03-21T08:55:14.875Z,16.93
2019-03-21T09:00:18.935Z,18.73
2019-03-21T09:05:22.818Z,18.48
2019-03-21T09:10:26.667Z,21.48
2019-03-21T09:15:30.572Z,19.32
2019-03-21T09:20:34.330Z,16.77
2019-03-21T09:25:38.138Z,17.20
2019-03-21T09:30:42.349Z,16.12
2019-03-21T09:35:46.274Z,16.62
2019-03-21T09:40:50.017Z,16.85
2019-03-21T09:45:53.754Z,11.75
2019-03-21T09:50:57.537Z,10.23
2019-03-21T09:56:01.498Z,11.63
2019-03-21T10:01:05.408Z,11.85
2019-03-21T10:06:09.343Z,16.10
2019-03-21T10:11:13.372Z,10.78
2019-03-21T10:16:17.283Z,12.98
2019-03-21T10:21:21.054Z,11.35
2019-03-21T10:26:25.138Z,12.90
2019-03-21T10:31:29.077Z,13.10
2019-03-21T10:36:33.045Z,15.10
2019-03-21T10:41:37.023Z,12.55
2019-03-21T10:46:41.052Z,11.95
2019-03-21T10:51:54.435Z,15.40
2019-03-21T10:56:50.642Z,15.53
2019-03-21T11:01:54.533Z,14.85
2019-03-21T11:07:03.199Z,14.70
2019-03-21T11:12:07.239Z,9.03
2019-03-21T11:17:11.123Z,12.00
2019-03-21T11:22:14.855Z,11.93
2019-03-21T11:27:18.598Z,11.27
2019-03-21T11:32:22.665Z,12.85
2019-03-21T11:37:26.570Z,9.90
2019-03-21T11:42:30.496Z,10.28
2019-03-21T11:47:41.607Z,9.10
2019-03-21T11:52:41.223Z,9.17
2019-03-21T11:57:45.216Z,10.70
2019-03-21T12:02:49.638Z,11.70
2019-03-21T12:07:53.522Z,10.72
2019-03-21T12:12:57.807Z,10.13
2019-03-21T12:18:01.678Z,10.15
2019-03-21T12:23:06.010Z,11.90
2019-03-21T12:28:10.234Z,9.20
2019-03-21T12:33:14.133Z,11.63
2019-03-21T12:38:17.997Z,11.50
2019-03-21T12:43:22.042Z,11.22
2019-03-21T12:48:25.956Z,9.23
2019-03-21T12:53:29.777Z,8.58
2019-03-21T12:58:33.805Z,10.63
2019-03-21T13:03:37.764Z,10.23
2019-03-21T13:08:41.761Z,9.60
2019-03-21T13:13:45.815Z,8.75
2019-03-21T13:18:49.728Z,8.85
2019-03-21T13:23:53.661Z,10.98
2019-03-21T13:28:57.992Z,10.45
2019-03-21T13:34:01.910Z,10.00
2019-03-21T13:39:07.886Z,10.50
2019-03-21T13:44:11.728Z,9.57
2019-03-21T13:49:15.585Z,12.63
2019-03-21T13:54:19.476Z,10.00
2019-03-21T13:59:23.395Z,8.43
2019-03-21T14:04:27.361Z,9.98
2019-03-21T14:09:31.245Z,10.08
2019-03-21T14:14:35.059Z,9.13
2019-03-21T14:19:39.024Z,9.60
2019-03-21T14:24:43.148Z,10.65
2019-03-21T14:29:47.057Z,9.95
2019-03-21T14:34:50.960Z,10.40
2019-03-21T14:39:55.117Z,11.93
2019-03-21T14:44:59.051Z,11.03
2019-03-21T14:50:04.083Z,10.43
2019-03-21T14:55:09.611Z,9.85
2019-03-21T15:00:18.275Z,9.73
2019-03-21T15:05:22.200Z,9.60
2019-03-21T15:10:26.070Z,9.93
2019-03-21T15:15:32.181Z,8.18
2019-03-21T15:20:35.964Z,10.63
2019-03-21T15:25:40.121Z,9.78
2019-03-21T15:30:44.217Z,10.65
2019-03-21T15:35:48.200Z,11.80
2019-03-21T15:40:52.452Z,10.05
2019-03-21T15:45:56.769Z,11.88
2019-03-21T15:51:04.846Z,11.50
2019-03-21T15:56:06.379Z,11.03
2019-03-21T16:01:10.344Z,10.48
2019-03-21T16:06:14.479Z,11.97
2019-03-21T16:11:18.275Z,11.33
2019-03-21T16:16:22.343Z,13.22
2019-03-21T16:21:26.399Z,10.58
2019-03-21T16:26:30.272Z,13.10
2019-03-21T16:31:34.021Z,13.38
2019-03-21T16:36:37.940Z,13.88
2019-03-21T16:41:41.819Z,13.15
2019-03-21T16:46:45.795Z,12.03
2019-03-21T16:51:49.702Z,11.75
2019-03-21T16:56:53.655Z,12.63
2019-03-21T17:01:57.586Z,12.82
2019-03-21T17:07:01.597Z,12.20
2019-03-21T17:12:05.427Z,13.28
2019-03-21T17:17:09.423Z,13.40
2019-03-21T17:22:13.621Z,14.07
2019-03-21T17:27:17.608Z,13.75
2019-03-21T17:32:21.587Z,13.80
2019-03-21T17:37:25.523Z,13.25
2019-03-21T17:42:29.520Z,12.93
2019-03-21T17:47:33.881Z,14.68
2019-03-21T17:52:37.589Z,13.55
2019-03-21T17:57:41.416Z,14.80
2019-03-21T18:02:45.301Z,14.65
2019-03-21T18:07:49.344Z,13.95
2019-03-21T18:12:53.231Z,14.90
2019-03-21T18:17:57.260Z,14.93
2019-03-21T18:23:01.617Z,14.80
2019-03-21T18:28:08.432Z,14.75
2019-03-21T18:33:11.446Z,15.10
2019-03-21T18:38:15.399Z,14.18
2019-03-21T18:43:19.393Z,16.32
2019-03-21T18:48:23.384Z,14.25
2019-03-21T18:53:27.487Z,14.33
2019-03-21T18:58:31.396Z,15.08
2019-03-21T19:03:35.345Z,16.05
2019-03-21T19:08:39.125Z,17.32
2019-03-21T19:13:43.299Z,18.32
2019-03-21T19:18:47.193Z,15.98
2019-03-21T19:23:51.186Z,17.77
2019-03-21T19:28:54.986Z,17.73
2019-03-21T19:33:59.882Z,17.70
2019-03-21T19:39:06.539Z,18.15
2019-03-21T19:44:10.817Z,18.70
2019-03-21T19:49:14.858Z,18.62
2019-03-21T19:54:18.958Z,21.20
2019-03-21T19:59:22.861Z,23.20
2019-03-21T20:04:26.853Z,23.60
2019-03-21T20:09:30.804Z,25.43
2019-03-21T20:14:34.625Z,24.20
2019-03-21T20:19:38.475Z,22.17
2019-03-21T20:24:42.362Z,24.05
2019-03-21T20:29:46.624Z,26.85
2019-03-21T20:34:50.609Z,24.32
2019-03-21T20:39:54.726Z,25.80
2019-03-21T20:44:58.680Z,26.77
2019-03-21T20:50:02.994Z,27.52
2019-03-21T20:55:08.632Z,28.75
2019-03-21T21:00:16.492Z,28.23
2019-03-21T21:05:22.939Z,28.77
2019-03-21T21:10:26.903Z,28.87
2019-03-21T21:15:30.956Z,28.38
2019-03-21T21:20:34.944Z,28.05
2019-03-21T21:25:38.798Z,29.80
2019-03-21T21:30:42.858Z,30.60
2019-03-21T21:35:46.853Z,29.65
2019-03-21T21:40:50.817Z,30.97
2019-03-21T21:45:54.939Z,31.12
2019-03-21T21:50:59.111Z,32.10
2019-03-21T21:56:03.917Z,32.03
2019-03-21T22:01:07.852Z,34.75
2019-03-21T22:06:11.958Z,34.50
2019-03-21T22:11:15.938Z,36.88
2019-03-21T22:16:19.832Z,39.85
2019-03-21T22:21:23.735Z,35.92
2019-03-21T22:26:29.848Z,33.95
2019-03-21T22:31:33.660Z,31.73
2019-03-21T22:36:48.630Z,31.75
2019-03-21T22:41:43.278Z,32.27
2019-03-21T22:46:47.539Z,32.33
2019-03-21T22:51:51.292Z,32.88
2019-03-21T22:56:55.011Z,34.40
2019-03-21T23:02:02.381Z,33.83
2019-03-21T23:07:06.377Z,32.15
2019-03-21T23:12:10.487Z,35.06
2019-03-21T23:17:14.235Z,33.28
2019-03-21T23:22:18.008Z,37.57
2019-03-21T23:27:21.966Z,35.13
2019-03-21T23:32:26.228Z,36.75
2019-03-21T23:37:30.036Z,36.80
2019-03-21T23:42:33.783Z,42.03
2019-03-21T23:47:37.790Z,39.00
2019-03-21T23:52:41.902Z,36.63
2019-03-21T23:57:46.107Z,35.80
